createdAt,value
2022-12-02T00:00:35.309Z,9.56
2022-12-02T00:05:40.273Z,9.60
2022-12-02T00:10:45.166Z,9.59
2022-12-02T00:15:49.620Z,9.31
2022-12-02T00:20:54.821Z,9.26
2022-12-02T00:25:58.261Z,9.28
2022-12-02T00:31:01.701Z,9.39
2022-12-02T00:36:07.216Z,9.57
2022-12-02T00:41:10.665Z,9.58
2022-12-02T00:46:31.811Z,9.56
2022-12-02T00:51:37.892Z,9.41
2022-12-02T00:56:41.376Z,9.22
2022-12-02T01:01:45.273Z,9.35
2022-12-02T01:06:50.124Z,9.17
2022-12-02T01:11:53.525Z,9.20
2022-12-02T01:16:57.076Z,9.37
2022-12-02T01:22:01.948Z,9.20
2022-12-02T01:27:05.442Z,9.10
2022-12-02T01:32:08.880Z,9.37
2022-12-02T01:37:13.750Z,9.28
2022-12-02T01:42:17.525Z,9.07
2022-12-02T01:47:21.057Z,8.89
2022-12-02T01:52:28.902Z,9.16
2022-12-02T01:57:32.499Z,9.14
2022-12-02T02:02:38.234Z,8.96
2022-12-02T02:07:43.564Z,8.91
2022-12-02T02:12:47.725Z,9.03
2022-12-02T02:17:52.288Z,9.17
2022-12-02T02:23:00.677Z,9.01
2022-12-02T02:28:05.861Z,8.97
2022-12-02T02:33:11.313Z,8.63
2022-12-02T02:38:16.369Z,8.86
2022-12-02T02:43:24.531Z,8.86
2022-12-02T02:48:28.349Z,8.74
2022-12-02T02:53:31.981Z,8.73
2022-12-02T02:58:37.916Z,8.83
2022-12-02T03:03:43.263Z,8.81
2022-12-02T03:08:49.041Z,8.61
2022-12-02T03:13:54.353Z,8.81
2022-12-02T03:18:58.705Z,8.83
2022-12-02T03:24:04.234Z,8.75
2022-12-02T03:29:10.196Z,8.62
2022-12-02T03:34:14.001Z,8.55
2022-12-02T03:39:18.016Z,8.66
2022-12-02T03:44:23.324Z,8.65
2022-12-02T03:49:27.040Z,8.76
2022-12-02T03:54:30.561Z,8.90
2022-12-02T03:59:35.431Z,8.69
2022-12-02T04:04:38.920Z,8.63
2022-12-02T04:09:42.310Z,8.92
2022-12-02T04:14:47.134Z,8.80
2022-12-02T04:19:50.737Z,8.87
2022-12-02T04:24:54.177Z,8.87
2022-12-02T04:29:59.233Z,8.99
2022-12-02T04:35:02.640Z,8.99
2022-12-02T04:40:07.683Z,8.96
2022-12-02T04:45:12.733Z,8.92
2022-12-02T04:50:16.213Z,8.73
2022-12-02T04:55:19.667Z,8.85
2022-12-02T05:00:24.653Z,9.04
2022-12-02T05:05:28.112Z,8.97
2022-12-02T05:10:31.580Z,8.85
2022-12-02T05:15:36.506Z,8.80
2022-12-02T05:20:39.923Z,8.96
2022-12-02T05:25:43.485Z,8.97
2022-12-02T05:30:48.390Z,9.05
2022-12-02T05:35:51.872Z,9.09
2022-12-02T05:40:57.215Z,8.85
2022-12-02T05:46:02.069Z,8.96
2022-12-02T05:51:09.843Z,8.89
2022-12-02T05:56:15.173Z,8.91
2022-12-02T06:01:22.481Z,8.90
2022-12-02T06:06:29.569Z,8.91
2022-12-02T06:11:36.470Z,8.58
2022-12-02T06:16:42.418Z,8.72
2022-12-02T06:21:45.950Z,8.74
2022-12-02T06:26:51.549Z,8.78
2022-12-02T06:31:57.589Z,9.00
2022-12-02T06:37:02.986Z,9.03
2022-12-02T06:42:15.846Z,9.17
2022-12-02T06:47:51.803Z,8.72
2022-12-02T06:52:57.716Z,8.85
2022-12-02T06:58:06.676Z,8.89
2022-12-02T07:03:21.701Z,8.52
2022-12-02T07:08:26.536Z,8.62
2022-12-02T07:13:30.193Z,8.57
2022-12-02T07:18:37.658Z,8.72
2022-12-02T07:23:41.297Z,9.01
2022-12-02T07:28:45.624Z,9.19
2022-12-02T07:33:50.773Z,9.01
2022-12-02T07:39:05.966Z,9.06
2022-12-02T07:44:12.494Z,9.08
2022-12-02T07:49:17.357Z,8.88
2022-12-02T07:54:20.997Z,8.94
2022-12-02T07:59:24.488Z,9.05
2022-12-02T08:04:29.545Z,8.98
2022-12-02T08:09:33.091Z,9.02
2022-12-02T08:14:36.671Z,9.21
2022-12-02T08:19:41.488Z,9.26
2022-12-02T08:24:44.939Z,9.22
2022-12-02T08:29:49.757Z,8.91
2022-12-02T08:34:54.791Z,9.01
2022-12-02T08:39:58.289Z,9.25
2022-12-02T08:45:01.990Z,9.14
2022-12-02T08:50:08.142Z,9.32
2022-12-02T08:55:11.580Z,9.20
2022-12-02T09:00:16.690Z,9.11
2022-12-02T09:05:21.825Z,9.22
2022-12-02T09:10:25.240Z,9.54
2022-12-02T09:15:28.758Z,9.57
2022-12-02T09:20:33.673Z,9.44
2022-12-02T09:25:37.261Z,8.90
2022-12-02T09:30:41.043Z,9.02
2022-12-02T09:35:45.888Z,9.20
2022-12-02T09:40:49.488Z,9.12
2022-12-02T09:45:52.979Z,8.99
2022-12-02T09:50:59.026Z,9.37
2022-12-02T09:56:02.663Z,9.29
2022-12-02T10:01:10.076Z,9.42
2022-12-02T10:06:18.405Z,9.06
2022-12-02T10:11:23.775Z,8.91
2022-12-02T10:16:28.031Z,9.06
2022-12-02T10:21:33.686Z,9.22
2022-12-02T10:26:46.073Z,9.12
2022-12-02T10:31:57.692Z,8.98
2022-12-02T10:37:18.177Z,9.23
2022-12-02T10:42:22.625Z,9.46
2022-12-02T10:47:27.142Z,9.51
2022-12-02T10:52:35.160Z,9.28
2022-12-02T10:57:38.899Z,9.30
2022-12-02T11:02:46.151Z,9.52
2022-12-02T11:07:58.478Z,9.57
2022-12-02T11:13:21.585Z,9.26
2022-12-02T11:19:00.101Z,9.43
2022-12-02T11:24:38.094Z,9.36
2022-12-02T11:29:42.949Z,9.41
2022-12-02T11:41:01.445Z,9.53
2022-12-02T11:46:06.864Z,9.35
2022-12-02T11:51:29.901Z,9.54
2022-12-02T11:56:37.508Z,9.70
2022-12-02T12:01:42.585Z,9.22
2022-12-02T12:06:55.661Z,9.63
2022-12-02T12:12:17.629Z,9.62
2022-12-02T12:17:43.653Z,9.36
2022-12-02T12:22:47.224Z,9.56
2022-12-02T12:27:50.689Z,9.62
2022-12-02T12:32:55.516Z,9.56
2022-12-02T12:37:59.097Z,9.70
2022-12-02T12:43:02.701Z,9.83
2022-12-02T12:48:07.906Z,9.45
2022-12-02T12:53:11.433Z,9.82
2022-12-02T12:58:15.305Z,9.72
2022-12-02T13:03:20.852Z,9.78
2022-12-02T13:08:24.405Z,9.62
2022-12-02T13:13:30.045Z,9.59
2022-12-02T13:18:34.831Z,9.63
2022-12-02T13:23:38.176Z,9.39
2022-12-02T13:28:41.525Z,9.46
2022-12-02T13:33:46.466Z,9.59
2022-12-02T13:38:49.851Z,9.46
2022-12-02T13:43:53.194Z,9.50
2022-12-02T13:48:57.952Z,9.55
2022-12-02T13:54:01.344Z,9.31
2022-12-02T13:59:04.975Z,9.26
2022-12-02T14:04:09.824Z,9.36
2022-12-02T14:09:13.337Z,9.42
2022-12-02T14:14:16.714Z,9.52
2022-12-02T14:19:21.509Z,9.38
2022-12-02T14:24:24.940Z,9.19
2022-12-02T14:29:28.265Z,9.25
2022-12-02T14:34:33.230Z,9.36
2022-12-02T14:39:36.643Z,9.36
2022-12-02T14:44:40.015Z,9.33
2022-12-02T14:49:45.985Z,9.32
2022-12-02T14:54:49.547Z,9.42
2022-12-02T14:59:52.978Z,9.42
2022-12-02T15:04:57.899Z,9.34
2022-12-02T15:10:01.408Z,9.19
2022-12-02T15:15:36.087Z,9.08
2022-12-02T15:20:30.436Z,9.10
2022-12-02T15:25:33.879Z,9.17
2022-12-02T15:30:37.254Z,9.15
2022-12-02T15:35:42.039Z,9.35
2022-12-02T15:40:45.564Z,9.22
2022-12-02T15:45:49.085Z,9.23
2022-12-02T15:50:55.591Z,9.24
2022-12-02T15:55:59.265Z,9.18
2022-12-02T16:01:02.698Z,9.17
2022-12-02T16:06:08.283Z,9.18
2022-12-02T16:11:12.542Z,8.98
2022-12-02T16:16:16.040Z,8.88
2022-12-02T16:21:20.851Z,9.17
2022-12-02T16:26:24.288Z,9.20
2022-12-02T16:31:27.744Z,8.94
2022-12-02T16:36:32.804Z,9.17
2022-12-02T16:41:36.325Z,9.11
2022-12-02T16:46:39.701Z,8.79
2022-12-02T16:51:44.580Z,8.97
2022-12-02T16:56:52.625Z,9.01
2022-12-02T17:01:59.242Z,9.05
2022-12-02T17:07:04.118Z,8.66
2022-12-02T17:12:07.718Z,8.83
2022-12-02T17:17:37.893Z,8.95
2022-12-02T17:22:35.993Z,9.00
2022-12-02T17:27:39.555Z,9.07
2022-12-02T17:32:42.962Z,9.13
2022-12-02T17:37:47.710Z,9.03
2022-12-02T17:42:51.147Z,8.89
2022-12-02T17:47:54.545Z,9.03
2022-12-02T17:52:59.331Z,9.17
2022-12-02T17:58:02.731Z,9.26
2022-12-02T18:03:06.376Z,9.36
2022-12-02T18:08:12.221Z,9.21
2022-12-02T18:13:15.833Z,9.39
2022-12-02T18:18:19.249Z,9.20
2022-12-02T18:23:27.769Z,9.24
2022-12-02T18:28:31.421Z,9.29
2022-12-02T18:33:34.863Z,9.40
2022-12-02T18:38:39.638Z,9.32
2022-12-02T18:43:42.993Z,9.24
2022-12-02T18:48:46.380Z,9.36
2022-12-02T18:53:51.180Z,9.38
2022-12-02T18:58:56.360Z,9.29
2022-12-02T19:03:59.720Z,9.22
2022-12-02T19:09:04.875Z,9.26
2022-12-02T19:14:08.298Z,9.22
2022-12-02T19:19:11.756Z,9.22
2022-12-02T19:24:17.716Z,9.21
2022-12-02T19:29:21.075Z,9.13
2022-12-02T19:34:25.126Z,9.19
2022-12-02T19:39:29.832Z,9.21
2022-12-02T19:44:33.361Z,9.20
2022-12-02T19:49:36.780Z,9.13
2022-12-02T19:54:44.258Z,9.00
2022-12-02T19:59:49.984Z,8.65
2022-12-02T20:04:53.500Z,8.58
2022-12-02T20:09:58.476Z,8.73
2022-12-02T20:15:01.857Z,8.68
2022-12-02T20:20:06.382Z,8.71
2022-12-02T20:25:12.000Z,8.80
2022-12-02T20:30:15.478Z,8.94
2022-12-02T20:35:18.917Z,8.82
2022-12-02T20:40:23.712Z,8.91
2022-12-02T20:45:27.241Z,8.84
2022-12-02T20:50:30.606Z,9.09
2022-12-02T20:55:35.359Z,8.79
2022-12-02T21:00:38.798Z,8.68
2022-12-02T21:05:42.434Z,9.03
2022-12-02T21:10:47.131Z,8.84
2022-12-02T21:15:50.564Z,8.88
2022-12-02T21:20:54.013Z,8.95
2022-12-02T21:25:58.877Z,8.66
2022-12-02T21:31:02.385Z,8.54
2022-12-02T21:36:06.068Z,8.43
2022-12-02T21:41:11.051Z,8.87
2022-12-02T21:46:14.482Z,8.37
2022-12-02T21:51:17.958Z,8.46
2022-12-02T21:56:24.203Z,8.54
2022-12-02T22:01:41.191Z,8.53
2022-12-02T22:06:45.258Z,8.42
2022-12-02T22:11:49.997Z,7.78
2022-12-02T22:16:53.501Z,7.82
2022-12-02T22:21:56.917Z,7.97
2022-12-02T22:27:01.647Z,8.22
2022-12-02T22:32:05.725Z,8.32
2022-12-02T22:37:09.144Z,8.43
2022-12-02T22:42:13.901Z,8.41
2022-12-02T22:47:17.267Z,8.13
2022-12-02T22:52:20.717Z,8.08
2022-12-02T22:57:25.473Z,8.23
2022-12-02T23:02:28.975Z,8.57
2022-12-02T23:07:32.512Z,8.26
2022-12-02T23:12:37.264Z,8.43
2022-12-02T23:17:40.624Z,8.51
2022-12-02T23:22:43.995Z,8.55
2022-12-02T23:27:48.781Z,8.49
2022-12-02T23:32:52.389Z,8.23
2022-12-02T23:37:56.043Z,7.98
2022-12-02T23:43:00.783Z,8.00
2022-12-02T23:48:04.376Z,8.50
2022-12-02T23:53:07.861Z,8.41
2022-12-02T23:58:12.620Z,8.30
